Time,TemperatureF,DewpointF,PressureIn,WindDirection,WindDirectionDegrees,WindSpeedMPH,WindSpeedGustMPH,Humidity,HourlyPrecipIn,Conditions,Clouds,dailyrainin,SoftwareType,DateUTC
2013-01-18 00:03:00,26.0,25.0,30.15,North,360,2.0,-999.0,96,-99.99,,,-99.99,,2013-01-18 05:03:00,
2013-01-18 00:12:00,26.0,25.0,30.15,North,360,2.0,-999.0,96,-99.99,,,-99.99,,2013-01-18 05:12:00,
2013-01-18 00:22:00,26.0,25.0,30.16,North,360,2.0,-999.0,95,-99.99,,,-99.99,,2013-01-18 05:22:00,
2013-01-18 00:33:00,26.0,25.0,30.17,North,360,3.0,-999.0,95,-99.99,,,-99.99,,2013-01-18 05:33:00,
2013-01-18 00:42:00,26.0,25.0,30.17,North,360,3.0,-999.0,95,-99.99,,,-99.99,,2013-01-18 05:42:00,
2013-01-18 00:53:00,26.0,25.0,30.18,North,360,3.0,-999.0,95,-99.99,,,-99.99,,2013-01-18 05:53:00,
2013-01-18 01:02:00,25.0,24.0,30.18,North,360,4.0,-999.0,94,-99.99,,,-99.99,,2013-01-18 06:02:00,
2013-01-18 01:12:00,25.0,24.0,30.18,North,360,4.0,-999.0,94,-99.99,,,-99.99,,2013-01-18 06:12:00,
2013-01-18 01:22:00,25.0,24.0,30.20,North,360,3.0,-999.0,94,-99.99,,,-99.99,,2013-01-18 06:22:00,
2013-01-18 01:33:00,25.0,24.0,30.21,North,360,3.0,-999.0,94,-99.99,,,-99.99,,2013-01-18 06:33:00,
2013-01-18 01:43:00,25.0,24.0,30.21,North,360,3.0,-999.0,94,-99.99,,,-99.99,,2013-01-18 06:43:00,
2013-01-18 01:53:00,25.0,23.0,30.22,North,360,3.0,-999.0,93,-99.99,,,-99.99,,2013-01-18 06:53:00,
2013-01-18 02:02:00,24.0,22.0,30.22,East,87,2.0,-999.0,93,-99.99,,,-99.99,,2013-01-18 07:02:00,
2013-01-18 02:12:00,24.0,22.0,30.22,East,87,2.0,-999.0,93,-99.99,,,-99.99,,2013-01-18 07:12:00,
2013-01-18 02:22:00,24.0,22.0,30.25,North,360,2.0,-999.0,92,-99.99,,,-99.99,,2013-01-18 07:22:00,
2013-01-18 02:32:00,24.0,22.0,30.25,North,360,2.0,-999.0,91,-99.99,,,-99.99,,2013-01-18 07:32:00,
2013-01-18 02:42:00,24.0,22.0,30.25,North,360,2.0,-999.0,91,-99.99,,,-99.99,,2013-01-18 07:42:00,
2013-01-18 02:52:00,24.0,21.0,30.25,North,360,2.0,-999.0,88,-99.99,,,-99.99,,2013-01-18 07:52:00,
2013-01-18 03:02:00,24.0,21.0,30.25,North,360,2.0,-999.0,88,-99.99,,,-99.99,,2013-01-18 08:02:00,
2013-01-18 03:12:00,24.0,21.0,30.25,North,360,2.0,-999.0,88,-99.99,,,-99.99,,2013-01-18 08:12:00,
2013-01-18 03:22:00,24.0,21.0,30.25,North,360,2.0,-999.0,88,-99.99,,,-99.99,,2013-01-18 08:22:00,
2013-01-18 03:32:00,24.0,20.0,30.26,North,360,1.0,-999.0,85,-99.99,,,-99.99,,2013-01-18 08:32:00,
2013-01-18 03:42:00,24.0,20.0,30.26,North,360,1.0,-999.0,85,-99.99,,,-99.99,,2013-01-18 08:42:00,
2013-01-18 03:53:00,23.0,19.0,30.26,North,360,2.0,-999.0,84,-99.99,,,-99.99,,2013-01-18 08:53:00,
2013-01-18 04:03:00,23.0,19.0,30.26,North,360,4.0,-999.0,83,-99.99,,,-99.99,,2013-01-18 09:03:00,
2013-01-18 04:12:00,23.0,19.0,30.26,North,360,4.0,-999.0,83,-99.99,,,-99.99,,2013-01-18 09:12:00,
2013-01-18 04:22:00,23.0,19.0,30.28,North,360,4.0,-999.0,84,-99.99,,,-99.99,,2013-01-18 09:22:00,
2013-01-18 04:33:00,23.0,19.0,30.29,North,360,3.0,-999.0,85,-99.99,,,-99.99,,2013-01-18 09:33:00,
2013-01-18 04:42:00,23.0,19.0,30.29,North,360,3.0,-999.0,85,-99.99,,,-99.99,,2013-01-18 09:42:00,
2013-01-18 04:53:00,23.0,19.0,30.29,North,360,4.0,-999.0,85,-99.99,,,-99.99,,2013-01-18 09:53:00,
2013-01-18 05:03:00,22.0,18.0,30.29,North,360,3.0,-999.0,85,-99.99,,,-99.99,,2013-01-18 10:03:00,
2013-01-18 05:12:00,22.0,18.0,30.29,North,360,3.0,-999.0,85,-99.99,,,-99.99,,2013-01-18 10:12:00,
2013-01-18 05:22:00,22.0,18.0,30.29,North,360,3.0,-999.0,85,-99.99,,,-99.99,,2013-01-18 10:22:00,
2013-01-18 05:32:00,22.0,18.0,30.33,North,360,1.0,-999.0,86,-99.99,,,-99.99,,2013-01-18 10:32:00,
2013-01-18 05:43:00,22.0,18.0,30.33,North,360,1.0,-999.0,86,-99.99,,,-99.99,,2013-01-18 10:43:00,
2013-01-18 05:53:00,22.0,18.0,30.32,North,360,2.0,-999.0,84,-99.99,,,-99.99,,2013-01-18 10:53:00,
2013-01-18 06:03:00,22.0,18.0,30.32,North,360,1.0,-999.0,85,-99.99,,,-99.99,,2013-01-18 11:03:00,
2013-01-18 06:12:00,22.0,18.0,30.32,North,360,1.0,-999.0,85,-99.99,,,-99.99,,2013-01-18 11:12:00,
2013-01-18 06:23:00,22.0,18.0,30.35,NNE,15,2.0,-999.0,85,-99.99,,,-99.99,,2013-01-18 11:23:00,
2013-01-18 06:32:00,22.0,18.0,30.35,North,360,1.0,-999.0,86,-99.99,,,-99.99,,2013-01-18 11:32:00,
2013-01-18 06:42:00,22.0,18.0,30.35,North,360,1.0,-999.0,86,-99.99,,,-99.99,,2013-01-18 11:42:00,
2013-01-18 06:53:00,21.0,17.0,30.35,North,360,0.0,-999.0,86,-99.99,,,-99.99,,2013-01-18 11:53:00,
2013-01-18 07:03:00,21.0,17.0,30.37,North,360,0.0,-999.0,86,-99.99,,,-99.99,,2013-01-18 12:03:00,
2013-01-18 07:12:00,21.0,17.0,30.37,North,360,0.0,-999.0,86,-99.99,,,-99.99,,2013-01-18 12:12:00,
2013-01-18 07:23:00,21.0,17.0,30.39,North,360,0.0,-999.0,86,-99.99,,,-99.99,,2013-01-18 12:23:00,
2013-01-18 07:33:00,22.0,18.0,30.40,North,360,0.0,-999.0,84,-99.99,,,-99.99,,2013-01-18 12:33:00,
2013-01-18 07:43:00,22.0,18.0,30.40,North,360,0.0,-999.0,84,-99.99,,,-99.99,,2013-01-18 12:43:00,
2013-01-18 07:53:00,22.0,18.0,30.40,North,360,1.0,-999.0,83,-99.99,,,-99.99,,2013-01-18 12:53:00,
2013-01-18 08:03:00,23.0,18.0,30.41,North,360,2.0,-999.0,80,-99.99,,,-99.99,,2013-01-18 13:03:00,
2013-01-18 08:12:00,23.0,18.0,30.41,North,360,2.0,-999.0,80,-99.99,,,-99.99,,2013-01-18 13:12:00,
2013-01-18 08:23:00,23.0,17.0,30.40,North,360,2.0,-999.0,79,-99.99,,,-99.99,,2013-01-18 13:23:00,
2013-01-18 08:33:00,24.0,18.0,30.40,North,360,0.0,-999.0,77,-99.99,,,-99.99,,2013-01-18 13:33:00,
2013-01-18 08:43:00,24.0,18.0,30.40,North,360,0.0,-999.0,77,-99.99,,,-99.99,,2013-01-18 13:43:00,
2013-01-18 08:53:00,26.0,18.0,30.42,NNE,13,1.0,-999.0,70,-99.99,,,-99.99,,2013-01-18 13:53:00,
2013-01-18 09:03:00,26.0,18.0,30.42,North,360,0.0,-999.0,71,-99.99,,,-99.99,,2013-01-18 14:03:00,
2013-01-18 09:12:00,26.0,18.0,30.42,North,360,0.0,-999.0,71,-99.99,,,-99.99,,2013-01-18 14:12:00,
2013-01-18 09:23:00,28.0,20.0,30.43,North,360,0.0,-999.0,71,-99.99,,,-99.99,,2013-01-18 14:23:00,
2013-01-18 09:33:00,29.0,21.0,30.45,North,360,0.0,-999.0,72,-99.99,,,-99.99,,2013-01-18 14:33:00,
2013-01-18 09:43:00,29.0,21.0,30.45,North,360,0.0,-999.0,72,-99.99,,,-99.99,,2013-01-18 14:43:00,
2013-01-18 09:53:00,30.0,20.0,30.46,North,360,0.0,-999.0,67,-99.99,,,-99.99,,2013-01-18 14:53:00,
2013-01-18 10:03:00,31.0,22.0,30.47,North,360,1.0,-999.0,68,-99.99,,,-99.99,,2013-01-18 15:03:00,
2013-01-18 10:13:00,31.0,22.0,30.47,North,360,1.0,-999.0,68,-99.99,,,-99.99,,2013-01-18 15:13:00,
2013-01-18 10:23:00,31.0,18.0,30.48,North,360,1.0,-999.0,59,-99.99,,,-99.99,,2013-01-18 15:23:00,
2013-01-18 10:34:00,32.0,21.0,30.49,North,360,0.0,-999.0,63,-99.99,,,-99.99,,2013-01-18 15:34:00,
2013-01-18 10:43:00,32.0,21.0,30.49,North,360,0.0,-999.0,63,-99.99,,,-99.99,,2013-01-18 15:43:00,
2013-01-18 10:54:00,34.0,23.0,30.49,North,360,0.0,-999.0,64,-99.99,,,-99.99,,2013-01-18 15:54:00,
2013-01-18 11:03:00,34.0,24.0,30.49,North,360,0.0,-999.0,66,-99.99,,,-99.99,,2013-01-18 16:03:00,
2013-01-18 11:13:00,34.0,24.0,30.49,North,360,0.0,-999.0,66,-99.99,,,-99.99,,2013-01-18 16:13:00,
2013-01-18 11:23:00,35.0,23.0,30.50,North,360,1.0,-999.0,60,-99.99,,,-99.99,,2013-01-18 16:23:00,
2013-01-18 11:33:00,36.0,23.0,30.50,North,360,2.0,-999.0,58,-99.99,,,-99.99,,2013-01-18 16:33:00,
2013-01-18 11:42:00,36.0,23.0,30.50,North,360,2.0,-999.0,58,-99.99,,,-99.99,,2013-01-18 16:42:00,
2013-01-18 11:53:00,38.0,24.0,30.49,North,360,1.0,-999.0,57,-99.99,,,-99.99,,2013-01-18 16:53:00,
2013-01-18 12:03:00,36.0,20.0,30.50,North,360,2.0,-999.0,52,-99.99,,,-99.99,,2013-01-18 17:03:00,
2013-01-18 12:13:00,36.0,20.0,30.50,North,360,2.0,-999.0,52,-99.99,,,-99.99,,2013-01-18 17:13:00,
2013-01-18 12:23:00,36.0,20.0,30.50,North,360,2.0,-999.0,52,-99.99,,,-99.99,,2013-01-18 17:23:00,
2013-01-18 12:33:00,37.0,22.0,30.49,North,360,0.0,-999.0,54,-99.99,,,-99.99,,2013-01-18 17:33:00,
2013-01-18 12:43:00,37.0,22.0,30.49,North,360,0.0,-999.0,54,-99.99,,,-99.99,,2013-01-18 17:43:00,
2013-01-18 12:53:00,37.0,23.0,30.48,North,360,1.0,-999.0,56,-99.99,,,-99.99,,2013-01-18 17:53:00,
2013-01-18 13:03:00,37.0,23.0,30.48,North,360,1.0,-999.0,57,-99.99,,,-99.99,,2013-01-18 18:03:00,
2013-01-18 13:13:00,37.0,23.0,30.48,North,360,1.0,-999.0,57,-99.99,,,-99.99,,2013-01-18 18:13:00,
2013-01-18 13:23:00,37.0,21.0,30.49,North,360,1.0,-999.0,53,-99.99,,,-99.99,,2013-01-18 18:23:00,
2013-01-18 13:33:00,37.0,23.0,30.49,North,360,2.0,-999.0,56,-99.99,,,-99.99,,2013-01-18 18:33:00,
2013-01-18 13:43:00,37.0,23.0,30.49,North,360,2.0,-999.0,56,-99.99,,,-99.99,,2013-01-18 18:43:00,
2013-01-18 13:53:00,38.0,24.0,30.49,North,360,1.0,-999.0,57,-99.99,,,-99.99,,2013-01-18 18:53:00,
2013-01-18 14:03:00,38.0,24.0,30.47,North,360,1.0,-999.0,56,-99.99,,,-99.99,,2013-01-18 19:03:00,
2013-01-18 14:13:00,38.0,24.0,30.47,North,360,1.0,-999.0,56,-99.99,,,-99.99,,2013-01-18 19:13:00,
2013-01-18 14:23:00,38.0,22.0,30.49,North,360,2.0,-999.0,53,-99.99,,,-99.99,,2013-01-18 19:23:00,
2013-01-18 14:33:00,39.0,24.0,30.47,North,360,0.0,-999.0,54,-99.99,,,-99.99,,2013-01-18 19:33:00,
2013-01-18 14:43:00,39.0,24.0,30.47,North,360,0.0,-999.0,54,-99.99,,,-99.99,,2013-01-18 19:43:00,
2013-01-18 14:53:00,40.0,25.0,30.47,North,360,1.0,-999.0,54,-99.99,,,-99.99,,2013-01-18 19:53:00,
2013-01-18 15:03:00,40.0,25.0,30.47,North,360,1.0,-999.0,54,-99.99,,,-99.99,,2013-01-18 20:03:00,
2013-01-18 15:13:00,40.0,25.0,30.47,North,360,1.0,-999.0,54,-99.99,,,-99.99,,2013-01-18 20:13:00,
2013-01-18 15:23:00,40.0,25.0,30.48,North,360,2.0,-999.0,54,-99.99,,,-99.99,,2013-01-18 20:23:00,
2013-01-18 15:33:00,40.0,26.0,30.48,North,360,2.0,-999.0,56,-99.99,,,-99.99,,2013-01-18 20:33:00,
2013-01-18 15:43:00,40.0,26.0,30.48,North,360,2.0,-999.0,56,-99.99,,,-99.99,,2013-01-18 20:43:00,
2013-01-18 15:53:00,39.0,24.0,30.47,North,360,1.0,-999.0,55,-99.99,,,-99.99,,2013-01-18 20:53:00,
2013-01-18 16:03:00,39.0,25.0,30.48,North,360,2.0,-999.0,56,-99.99,,,-99.99,,2013-01-18 21:03:00,
2013-01-18 16:13:00,39.0,25.0,30.48,North,360,2.0,-999.0,56,-99.99,,,-99.99,,2013-01-18 21:13:00,
2013-01-18 16:23:00,39.0,25.0,30.50,North,360,2.0,-999.0,57,-99.99,,,-99.99,,2013-01-18 21:23:00,
2013-01-18 16:33:00,39.0,24.0,30.50,North,360,2.0,-999.0,55,-99.99,,,-99.99,,2013-01-18 21:33:00,
2013-01-18 16:43:00,39.0,24.0,30.50,North,360,2.0,-999.0,55,-99.99,,,-99.99,,2013-01-18 21:43:00,
2013-01-18 16:53:00,40.0,23.0,30.49,North,360,2.0,-999.0,51,-99.99,,,-99.99,,2013-01-18 21:53:00,
2013-01-18 17:03:00,40.0,23.0,30.49,North,360,0.0,-999.0,51,-99.99,,,-99.99,,2013-01-18 22:03:00,
2013-01-18 17:12:00,40.0,23.0,30.49,North,360,0.0,-999.0,51,-99.99,,,-99.99,,2013-01-18 22:12:00,
2013-01-18 17:23:00,39.0,24.0,30.50,North,360,1.0,-999.0,54,-99.99,,,-99.99,,2013-01-18 22:23:00,
2013-01-18 17:33:00,38.0,24.0,30.51,North,360,0.0,-999.0,56,-99.99,,,-99.99,,2013-01-18 22:33:00,
2013-01-18 17:43:00,38.0,24.0,30.51,North,360,0.0,-999.0,56,-99.99,,,-99.99,,2013-01-18 22:43:00,
2013-01-18 17:53:00,37.0,24.0,30.51,North,360,0.0,-999.0,59,-99.99,,,-99.99,,2013-01-18 22:53:00,
2013-01-18 18:03:00,36.0,25.0,30.52,North,360,0.0,-999.0,65,-99.99,,,-99.99,,2013-01-18 23:03:00,
2013-01-18 18:12:00,36.0,25.0,30.52,North,360,0.0,-999.0,65,-99.99,,,-99.99,,2013-01-18 23:12:00,
2013-01-18 18:23:00,35.0,26.0,30.53,North,360,0.0,-999.0,70,-99.99,,,-99.99,,2013-01-18 23:23:00,
2013-01-18 18:33:00,34.0,26.0,30.54,North,360,0.0,-999.0,73,-99.99,,,-99.99,,2013-01-18 23:33:00,
2013-01-18 18:43:00,34.0,26.0,30.54,North,360,0.0,-999.0,73,-99.99,,,-99.99,,2013-01-18 23:43:00,
2013-01-18 18:53:00,34.0,26.0,30.54,North,360,0.0,-999.0,73,-99.99,,,-99.99,,2013-01-18 23:53:00,
2013-01-18 19:02:00,34.0,26.0,30.55,North,360,0.0,-999.0,73,-99.99,,,-99.99,,2013-01-19 00:02:00,
2013-01-18 19:12:00,34.0,26.0,30.55,North,360,0.0,-999.0,73,-99.99,,,-99.99,,2013-01-19 00:12:00,
2013-01-18 19:23:00,34.0,26.0,30.55,North,360,0.0,-999.0,73,-99.99,,,-99.99,,2013-01-19 00:23:00,
2013-01-18 19:33:00,33.0,25.0,30.55,North,360,0.0,-999.0,73,-99.99,,,-99.99,,2013-01-19 00:33:00,
2013-01-18 19:43:00,33.0,25.0,30.55,North,360,0.0,-999.0,73,-99.99,,,-99.99,,2013-01-19 00:43:00,
2013-01-18 19:53:00,33.0,25.0,30.55,North,360,0.0,-999.0,73,-99.99,,,-99.99,,2013-01-19 00:53:00,
2013-01-18 20:02:00,33.0,25.0,30.54,North,360,0.0,-999.0,72,-99.99,,,-99.99,,2013-01-19 01:02:00,
2013-01-18 20:12:00,33.0,25.0,30.54,North,360,0.0,-999.0,72,-99.99,,,-99.99,,2013-01-19 01:12:00,
2013-01-18 20:23:00,33.0,24.0,30.53,North,360,0.0,-999.0,70,-99.99,,,-99.99,,2013-01-19 01:23:00,
2013-01-18 20:33:00,33.0,24.0,30.53,North,360,0.0,-999.0,70,-99.99,,,-99.99,,2013-01-19 01:33:00,
2013-01-18 20:42:00,33.0,24.0,30.53,North,360,0.0,-999.0,70,-99.99,,,-99.99,,2013-01-19 01:42:00,
2013-01-18 20:53:00,33.0,24.0,30.53,North,360,0.0,-999.0,69,-99.99,,,-99.99,,2013-01-19 01:53:00,
2013-01-18 21:02:00,32.0,22.0,30.53,North,360,1.0,-999.0,67,-99.99,,,-99.99,,2013-01-19 02:02:00,
2013-01-18 21:12:00,32.0,22.0,30.53,North,360,1.0,-999.0,67,-99.99,,,-99.99,,2013-01-19 02:12:00,
2013-01-18 21:23:00,32.0,22.0,30.51,North,360,1.0,-999.0,66,-99.99,,,-99.99,,2013-01-19 02:23:00,
2013-01-18 21:33:00,32.0,22.0,30.51,North,360,0.0,-999.0,67,-99.99,,,-99.99,,2013-01-19 02:33:00,
2013-01-18 21:43:00,32.0,22.0,30.51,North,360,0.0,-999.0,67,-99.99,,,-99.99,,2013-01-19 02:43:00,
2013-01-18 21:53:00,32.0,23.0,30.52,North,360,0.0,-999.0,68,-99.99,,,-99.99,,2013-01-19 02:53:00,
2013-01-18 22:03:00,31.0,22.0,30.52,North,360,0.0,-999.0,70,-99.99,,,-99.99,,2013-01-19 03:03:00,
2013-01-18 22:12:00,31.0,22.0,30.52,North,360,0.0,-999.0,70,-99.99,,,-99.99,,2013-01-19 03:12:00,
2013-01-18 22:23:00,31.0,22.0,30.49,North,360,0.0,-999.0,70,-99.99,,,-99.99,,2013-01-19 03:23:00,
2013-01-18 22:33:00,31.0,23.0,30.49,North,360,0.0,-999.0,71,-99.99,,,-99.99,,2013-01-19 03:33:00,
2013-01-18 22:43:00,31.0,23.0,30.49,North,360,0.0,-999.0,71,-99.99,,,-99.99,,2013-01-19 03:43:00,
2013-01-18 22:53:00,31.0,23.0,30.48,North,360,0.0,-999.0,71,-99.99,,,-99.99,,2013-01-19 03:53:00,
2013-01-18 23:02:00,31.0,23.0,30.48,North,360,0.0,-999.0,71,-99.99,,,-99.99,,2013-01-19 04:02:00,
2013-01-18 23:12:00,31.0,23.0,30.48,North,360,0.0,-999.0,71,-99.99,,,-99.99,,2013-01-19 04:12:00,
2013-01-18 23:22:00,31.0,23.0,30.47,North,360,0.0,-999.0,71,-99.99,,,-99.99,,2013-01-19 04:22:00,
2013-01-18 23:32:00,31.0,23.0,30.47,North,360,0.0,-999.0,71,-99.99,,,-99.99,,2013-01-19 04:32:00,
2013-01-18 23:42:00,31.0,23.0,30.47,North,360,0.0,-999.0,71,-99.99,,,-99.99,,2013-01-19 04:42:00,
2013-01-18 23:53:00,31.0,22.0,30.47,North,360,1.0,-999.0,69,-99.99,,,-99.99,,2013-01-19 04:53:00,